createdAt,value
2023-02-15T00:01:14.799Z,32.37
2023-02-15T00:03:41.507Z,28.43
2023-02-15T00:06:08.392Z,32.90
2023-02-15T00:08:35.071Z,33.90
2023-02-15T00:11:06.188Z,39.23
2023-02-15T00:13:32.913Z,39.03
2023-02-15T00:16:03.345Z,32.90
2023-02-15T00:18:30.296Z,29.33
2023-02-15T00:20:56.982Z,23.40
2023-02-15T00:23:23.699Z,25.70
2023-02-15T00:25:50.383Z,28.43
2023-02-15T00:28:17.076Z,32.87
2023-02-15T00:30:43.788Z,28.53
2023-02-15T00:33:11.802Z,27.20
2023-02-15T00:35:38.524Z,31.63
2023-02-15T00:38:05.185Z,32.67
2023-02-15T00:40:31.835Z,28.30
2023-02-15T00:42:58.490Z,32.60
2023-02-15T00:45:25.185Z,29.33
2023-02-15T00:47:51.835Z,30.23
2023-02-15T00:50:21.213Z,36.33
2023-02-15T00:52:49.495Z,34.97
2023-02-15T00:55:16.311Z,27.83
2023-02-15T00:57:42.990Z,31.27
2023-02-15T01:00:10.752Z,26.53
2023-02-15T01:02:37.396Z,30.97
2023-02-15T01:05:04.360Z,31.40
2023-02-15T01:07:32.360Z,24.83
2023-02-15T01:09:59.082Z,33.00
2023-02-15T01:12:25.752Z,34.90
2023-02-15T01:14:52.449Z,31.63
2023-02-15T01:17:19.156Z,31.97
2023-02-15T01:19:45.874Z,28.03
2023-02-15T01:22:12.555Z,35.00
2023-02-15T01:24:40.527Z,30.57
2023-02-15T01:27:07.200Z,37.77
2023-02-15T01:29:33.883Z,33.20
2023-02-15T01:32:00.708Z,37.57
2023-02-15T01:34:27.574Z,30.47
2023-02-15T01:36:54.238Z,23.73
2023-02-15T01:39:20.910Z,22.80
2023-02-15T01:41:48.973Z,26.70
2023-02-15T01:44:52.415Z,40.83
2023-02-15T01:47:22.869Z,26.70
2023-02-15T01:49:58.408Z,34.70
2023-02-15T01:52:25.241Z,35.53
2023-02-15T01:54:51.960Z,36.50
2023-02-15T01:57:25.348Z,39.80
2023-02-15T01:59:55.484Z,37.90
2023-02-15T02:02:23.337Z,39.40
2023-02-15T02:04:51.758Z,31.53
2023-02-15T02:07:21.102Z,39.43
2023-02-15T02:09:48.772Z,40.20
2023-02-15T02:12:16.940Z,40.70
2023-02-15T02:14:46.379Z,33.37
2023-02-15T02:17:18.256Z,39.90
2023-02-15T02:20:24.617Z,44.73
2023-02-15T02:23:17.149Z,28.53
2023-02-15T02:26:19.441Z,42.50
2023-02-15T02:29:22.294Z,35.30
2023-02-15T02:32:13.492Z,36.00
2023-02-15T02:34:47.011Z,36.53
2023-02-15T02:37:20.473Z,36.30
2023-02-15T02:39:53.785Z,37.07
2023-02-15T02:42:28.655Z,32.37
2023-02-15T02:45:01.684Z,44.43
2023-02-15T02:47:33.966Z,38.63
2023-02-15T02:50:07.275Z,35.27
2023-02-15T02:52:38.322Z,36.23
2023-02-15T02:55:09.892Z,39.80
2023-02-15T02:57:42.079Z,37.80
2023-02-15T03:00:10.396Z,46.00
2023-02-15T03:02:41.792Z,36.90
2023-02-15T03:05:15.156Z,39.57
2023-02-15T03:07:43.913Z,39.40
2023-02-15T03:10:11.376Z,35.33
2023-02-15T03:12:40.455Z,39.97
2023-02-15T03:15:11.196Z,34.70
2023-02-15T03:17:42.264Z,40.67
2023-02-15T03:20:15.126Z,34.73
2023-02-15T03:22:47.263Z,50.77
2023-02-15T03:25:19.501Z,42.93
2023-02-15T03:27:49.815Z,51.10
2023-02-15T03:30:20.693Z,40.97
2023-02-15T03:32:48.278Z,40.23
2023-02-15T03:35:16.502Z,40.00
2023-02-15T03:37:47.588Z,43.63
2023-02-15T03:40:20.285Z,38.70
2023-02-15T03:42:49.902Z,42.37
2023-02-15T03:45:22.474Z,40.03
2023-02-15T03:47:53.293Z,41.27
2023-02-15T03:50:25.430Z,27.50
2023-02-15T03:52:52.766Z,31.30
2023-02-15T03:55:19.432Z,49.63
2023-02-15T03:57:46.640Z,39.43
2023-02-15T04:00:16.076Z,40.53
2023-02-15T04:02:53.516Z,35.03
2023-02-15T04:05:21.608Z,43.97
2023-02-15T04:07:48.486Z,41.47
2023-02-15T04:10:15.321Z,38.77
2023-02-15T04:12:41.986Z,37.43
2023-02-15T04:15:12.590Z,44.30
2023-02-15T04:17:39.327Z,40.77
2023-02-15T04:20:07.374Z,47.80
2023-02-15T04:22:35.355Z,49.73
2023-02-15T04:25:02.014Z,44.33
2023-02-15T04:27:28.660Z,34.97
2023-02-15T04:29:55.318Z,52.73
2023-02-15T04:32:21.993Z,46.53
2023-02-15T04:34:48.643Z,49.70
2023-02-15T04:37:15.303Z,42.00
2023-02-15T04:39:43.349Z,42.37
2023-02-15T04:42:10.017Z,59.13
2023-02-15T04:44:36.665Z,39.33
2023-02-15T04:47:03.415Z,58.30
2023-02-15T04:49:30.065Z,33.43
2023-02-15T04:51:56.700Z,39.77
2023-02-15T04:54:23.464Z,59.03
2023-02-15T04:56:51.478Z,59.10
2023-02-15T04:59:18.245Z,46.90
2023-02-15T05:01:44.901Z,40.17
2023-02-15T05:04:12.094Z,46.93
2023-02-15T05:06:38.818Z,41.33
2023-02-15T05:09:05.512Z,53.93
2023-02-15T05:11:32.218Z,39.47
2023-02-15T05:14:00.232Z,45.43
2023-02-15T05:16:26.987Z,80.87
2023-02-15T05:18:53.656Z,53.40
2023-02-15T05:21:20.509Z,51.07
2023-02-15T05:23:47.236Z,117.63
2023-02-15T05:26:18.862Z,53.57
2023-02-15T05:28:45.584Z,77.97
2023-02-15T05:31:15.148Z,55.30
2023-02-15T05:33:42.581Z,75.57
2023-02-15T05:36:10.184Z,50.97
2023-02-15T05:38:37.468Z,49.00
2023-02-15T05:41:04.213Z,51.73
2023-02-15T05:43:30.929Z,114.53
2023-02-15T05:45:57.689Z,40.87
2023-02-15T05:48:27.347Z,49.90
2023-02-15T05:51:01.344Z,48.63
2023-02-15T05:53:28.980Z,141.90
2023-02-15T05:55:55.773Z,54.00
2023-02-15T05:58:22.426Z,53.83
2023-02-15T06:00:49.065Z,51.20
2023-02-15T06:03:15.736Z,50.70
2023-02-15T06:05:43.764Z,70.83
2023-02-15T06:08:10.498Z,41.93
2023-02-15T06:10:37.351Z,116.40
2023-02-15T06:13:04.613Z,45.60
2023-02-15T06:15:31.326Z,101.53
2023-02-15T06:17:58.125Z,142.27
2023-02-15T06:20:25.204Z,85.23
2023-02-15T06:22:53.220Z,125.63
2023-02-15T06:25:19.952Z,95.03
2023-02-15T06:27:46.668Z,34.00
2023-02-15T06:30:14.412Z,66.00
2023-02-15T06:32:41.141Z,30.03
2023-02-15T06:35:08.288Z,69.23
2023-02-15T06:37:34.961Z,35.43
2023-02-15T06:40:04.017Z,25.87
2023-02-15T06:42:31.185Z,78.10
2023-02-15T06:44:57.893Z,86.33
2023-02-15T06:47:24.582Z,74.33
2023-02-15T06:49:51.259Z,76.57
2023-02-15T06:52:17.936Z,27.03
2023-02-15T06:54:44.598Z,87.97
2023-02-15T06:57:12.596Z,21.40
2023-02-15T06:59:39.283Z,66.33
2023-02-15T07:02:06.194Z,68.77
2023-02-15T07:04:33.013Z,20.63
2023-02-15T07:06:59.777Z,50.63
2023-02-15T07:09:26.729Z,35.30
2023-02-15T07:11:53.411Z,30.50
2023-02-15T07:14:21.540Z,43.03
2023-02-15T07:16:48.230Z,49.17
2023-02-15T07:19:14.899Z,83.43
2023-02-15T07:21:41.616Z,58.27
2023-02-15T07:24:08.396Z,45.50
2023-02-15T07:26:35.240Z,108.90
2023-02-15T07:29:01.905Z,52.27
2023-02-15T07:31:30.300Z,69.20
2023-02-15T07:33:57.173Z,138.30
2023-02-15T07:36:24.095Z,71.30
2023-02-15T07:38:50.902Z,93.30
2023-02-15T07:41:17.708Z,60.77
2023-02-15T07:43:45.871Z,62.90
2023-02-15T07:46:14.758Z,27.80
2023-02-15T07:48:43.463Z,31.27
2023-02-15T07:51:11.564Z,89.50
2023-02-15T07:53:39.312Z,34.63
2023-02-15T07:56:07.497Z,28.93
2023-02-15T07:58:34.578Z,34.90
2023-02-15T08:01:01.232Z,63.27
2023-02-15T08:03:28.078Z,104.90
2023-02-15T08:05:59.603Z,58.13
2023-02-15T08:08:27.555Z,43.67
2023-02-15T08:10:54.207Z,33.70
2023-02-15T08:13:21.100Z,32.70
2023-02-15T08:15:49.664Z,23.67
2023-02-15T08:18:16.335Z,55.57
2023-02-15T08:20:43.028Z,21.20
2023-02-15T08:23:12.050Z,19.83
2023-02-15T08:25:38.705Z,19.27
2023-02-15T08:28:05.400Z,59.67
2023-02-15T08:30:33.361Z,21.53
2023-02-15T08:33:01.797Z,24.10
2023-02-15T08:35:28.621Z,14.03
2023-02-15T08:37:55.353Z,26.40
2023-02-15T08:40:23.407Z,32.67
2023-02-15T08:42:50.080Z,17.10
2023-02-15T08:45:16.893Z,24.67
2023-02-15T08:47:43.574Z,19.63
2023-02-15T08:50:10.775Z,30.63
2023-02-15T08:52:37.481Z,48.53
2023-02-15T08:55:04.405Z,23.23
2023-02-15T08:57:32.670Z,35.13
2023-02-15T08:59:59.364Z,25.50
2023-02-15T09:02:26.224Z,46.13
2023-02-15T09:04:53.028Z,28.20
2023-02-15T09:07:19.898Z,18.87
2023-02-15T09:09:46.978Z,21.57
2023-02-15T09:12:13.726Z,22.87
2023-02-15T09:14:42.015Z,27.83
2023-02-15T09:17:08.917Z,20.53
2023-02-15T09:19:35.572Z,18.00
2023-02-15T09:22:02.393Z,24.00
2023-02-15T09:24:33.301Z,26.50
2023-02-15T09:26:59.995Z,20.80
2023-02-15T09:29:26.731Z,18.67
2023-02-15T09:31:54.851Z,20.43
2023-02-15T09:34:23.067Z,24.50
2023-02-15T09:36:50.454Z,20.10
2023-02-15T09:39:19.504Z,22.27
2023-02-15T09:42:20.345Z,22.87
2023-02-15T09:45:08.062Z,15.63
2023-02-15T09:47:56.819Z,19.90
2023-02-15T09:50:31.283Z,24.97
2023-02-15T09:53:15.364Z,33.47
2023-02-15T09:55:57.293Z,18.43
2023-02-15T09:58:35.313Z,26.90
2023-02-15T10:01:12.354Z,21.17
2023-02-15T10:03:51.924Z,20.10
2023-02-15T10:06:33.827Z,32.40
2023-02-15T10:09:16.667Z,19.87
2023-02-15T10:11:58.567Z,16.90
2023-02-15T10:15:03.711Z,17.40
2023-02-15T10:17:41.592Z,17.00
2023-02-15T10:20:21.655Z,19.33
2023-02-15T10:23:07.873Z,13.70
2023-02-15T10:25:47.128Z,15.60
2023-02-15T10:28:18.349Z,12.90
2023-02-15T10:30:48.671Z,15.83
2023-02-15T10:33:27.968Z,17.60
2023-02-15T10:36:03.758Z,16.73
2023-02-15T10:38:37.709Z,16.87
2023-02-15T10:41:14.338Z,16.83
2023-02-15T10:44:06.454Z,13.07
2023-02-15T10:46:50.411Z,18.87
2023-02-15T10:49:46.883Z,16.97
2023-02-15T10:52:25.985Z,12.57
2023-02-15T10:55:02.087Z,16.07
2023-02-15T10:57:38.536Z,20.30
2023-02-15T11:00:14.396Z,14.53
2023-02-15T11:02:56.993Z,18.00
2023-02-15T11:05:34.940Z,15.57
2023-02-15T11:08:07.986Z,16.70
2023-02-15T11:10:38.620Z,15.00
2023-02-15T11:13:10.982Z,20.63
2023-02-15T11:15:41.079Z,18.70
2023-02-15T11:18:13.840Z,13.23
2023-02-15T11:20:46.318Z,16.33
2023-02-15T11:23:17.015Z,13.13
2023-02-15T11:25:46.696Z,16.17
2023-02-15T11:28:23.464Z,11.57
2023-02-15T11:30:54.213Z,17.40
2023-02-15T11:33:24.210Z,16.20
2023-02-15T11:35:54.779Z,15.97
2023-02-15T11:38:26.991Z,12.90
2023-02-15T11:40:57.271Z,18.60
2023-02-15T11:43:30.688Z,18.37
2023-02-15T11:45:57.413Z,22.13
2023-02-15T11:48:24.303Z,15.00
2023-02-15T11:50:50.951Z,16.90
2023-02-15T11:53:20.325Z,21.80
2023-02-15T11:55:49.777Z,16.93
2023-02-15T11:58:26.538Z,16.23
2023-02-15T12:00:58.404Z,15.80
2023-02-15T12:03:36.296Z,18.97
2023-02-15T12:06:05.601Z,21.20
2023-02-15T12:08:38.829Z,20.07
2023-02-15T12:11:10.173Z,28.37
2023-02-15T12:13:36.826Z,16.20
2023-02-15T12:16:12.721Z,17.80
2023-02-15T12:18:41.221Z,19.43
2023-02-15T12:21:10.802Z,22.00
2023-02-15T12:23:45.922Z,23.13
2023-02-15T12:26:14.183Z,21.00
2023-02-15T12:28:43.583Z,20.13
2023-02-15T12:31:21.137Z,19.90
2023-02-15T12:33:48.317Z,19.73
2023-02-15T12:36:19.946Z,20.03
2023-02-15T12:39:06.136Z,18.43
2023-02-15T12:41:34.184Z,16.50
2023-02-15T12:44:06.717Z,20.33
2023-02-15T12:46:37.944Z,20.13
2023-02-15T12:49:20.489Z,19.00
2023-02-15T12:51:49.838Z,15.93
2023-02-15T12:54:33.435Z,18.37
2023-02-15T12:57:22.745Z,15.13
2023-02-15T12:59:50.869Z,16.00
2023-02-15T13:02:23.066Z,14.87
2023-02-15T13:04:51.074Z,16.13
2023-02-15T13:07:18.098Z,14.07
2023-02-15T13:09:45.338Z,16.83
2023-02-15T13:12:19.309Z,15.20
2023-02-15T13:14:48.105Z,15.97
2023-02-15T13:17:16.727Z,18.03
2023-02-15T13:19:46.647Z,14.70
2023-02-15T13:22:16.524Z,14.37
2023-02-15T13:24:47.126Z,9.97
2023-02-15T13:27:19.635Z,15.17
2023-02-15T13:29:50.410Z,14.33
2023-02-15T13:32:27.617Z,23.73
2023-02-15T13:34:57.571Z,16.10
2023-02-15T13:37:47.879Z,13.50
2023-02-15T13:40:20.696Z,12.07
2023-02-15T13:42:53.587Z,13.83
2023-02-15T13:45:37.744Z,10.83
2023-02-15T13:48:15.549Z,10.73
2023-02-15T13:50:54.786Z,13.90
2023-02-15T13:53:37.618Z,14.00
2023-02-15T13:56:10.320Z,14.10
2023-02-15T13:59:07.989Z,11.73
2023-02-15T14:01:40.899Z,10.40
2023-02-15T14:04:50.862Z,10.93
2023-02-15T14:07:38.584Z,10.53
2023-02-15T14:10:30.522Z,14.70
2023-02-15T14:13:25.822Z,13.43
2023-02-15T14:16:00.510Z,13.83
2023-02-15T14:18:36.965Z,10.93
2023-02-15T14:21:09.944Z,9.97
2023-02-15T14:23:52.585Z,15.13
2023-02-15T14:26:26.789Z,12.93
2023-02-15T14:29:03.494Z,9.63
2023-02-15T14:31:36.001Z,12.90
2023-02-15T14:34:02.795Z,10.37
2023-02-15T14:36:31.384Z,9.93
2023-02-15T14:39:09.352Z,11.67
2023-02-15T14:41:42.173Z,13.10
2023-02-15T14:44:14.385Z,10.87
2023-02-15T14:46:49.259Z,12.07
2023-02-15T14:49:20.464Z,11.63
2023-02-15T14:51:58.674Z,10.33
2023-02-15T14:54:57.972Z,13.27
2023-02-15T14:57:27.602Z,13.00
2023-02-15T14:59:57.096Z,11.70
2023-02-15T15:02:31.165Z,17.63
2023-02-15T15:05:03.592Z,20.27
2023-02-15T15:07:39.218Z,12.80
2023-02-15T15:10:27.914Z,12.07
2023-02-15T15:12:55.713Z,11.27
2023-02-15T15:15:34.987Z,12.53
2023-02-15T15:18:04.923Z,14.17
2023-02-15T15:20:49.583Z,11.27
2023-02-15T15:23:51.026Z,11.40
2023-02-15T15:26:29.120Z,13.93
2023-02-15T15:29:01.024Z,14.90
2023-02-15T15:31:49.218Z,12.13
2023-02-15T15:34:28.854Z,16.40
2023-02-15T15:37:29.333Z,18.87
2023-02-15T15:40:34.856Z,14.43
2023-02-15T15:43:32.492Z,14.00
2023-02-15T15:46:28.068Z,16.80
2023-02-15T15:48:55.277Z,15.17
2023-02-15T15:51:30.524Z,20.33
2023-02-15T15:53:58.297Z,20.90
2023-02-15T15:56:30.231Z,15.40
2023-02-15T15:59:01.465Z,14.67
2023-02-15T16:01:30.148Z,18.97
2023-02-15T16:03:58.741Z,20.30
2023-02-15T16:06:35.592Z,15.67
2023-02-15T16:09:18.204Z,19.60
2023-02-15T16:11:46.417Z,17.93
2023-02-15T16:14:15.892Z,20.57
2023-02-15T16:16:49.286Z,15.97
2023-02-15T16:19:22.721Z,16.43
2023-02-15T16:21:51.475Z,20.40
2023-02-15T16:24:34.830Z,15.50
2023-02-15T16:27:17.317Z,16.17
2023-02-15T16:29:44.093Z,17.90
2023-02-15T16:32:18.861Z,25.60
2023-02-15T16:34:52.631Z,20.93
2023-02-15T16:37:22.893Z,20.57
2023-02-15T16:39:50.195Z,23.93
2023-02-15T16:42:18.010Z,23.20
2023-02-15T16:44:45.957Z,23.20
2023-02-15T16:47:17.557Z,23.13
2023-02-15T16:49:47.664Z,22.90
2023-02-15T16:52:20.366Z,16.40
2023-02-15T16:54:53.358Z,16.00
2023-02-15T16:57:22.531Z,23.43
2023-02-15T16:59:51.237Z,21.43
2023-02-15T17:02:43.100Z,21.97
2023-02-15T17:05:15.803Z,23.50
2023-02-15T17:07:49.367Z,22.77
2023-02-15T17:10:32.560Z,20.10
2023-02-15T17:13:03.976Z,25.10
2023-02-15T17:15:33.755Z,26.03
2023-02-15T17:18:04.616Z,28.47
2023-02-15T17:20:34.530Z,35.73
2023-02-15T17:23:03.727Z,33.10
2023-02-15T17:25:38.498Z,39.87
2023-02-15T17:28:06.478Z,38.03
2023-02-15T17:30:36.965Z,36.07
2023-02-15T17:33:04.776Z,33.10
2023-02-15T17:35:32.709Z,39.13
2023-02-15T17:38:07.391Z,36.10
2023-02-15T17:40:36.772Z,31.97
2023-02-15T17:43:03.891Z,34.03
2023-02-15T17:45:34.536Z,36.90
2023-02-15T17:48:04.583Z,27.50
2023-02-15T17:50:31.517Z,39.50
2023-02-15T17:52:59.104Z,38.47
2023-02-15T17:55:25.886Z,42.17
2023-02-15T17:57:53.924Z,33.07
2023-02-15T18:00:20.956Z,36.57
2023-02-15T18:02:47.916Z,41.67
2023-02-15T18:05:15.103Z,31.07
2023-02-15T18:07:41.789Z,25.83
2023-02-15T18:10:14.643Z,46.33
2023-02-15T18:12:41.381Z,33.87
2023-02-15T18:15:12.600Z,32.70
2023-02-15T18:17:42.527Z,36.77
2023-02-15T18:20:18.690Z,38.50
2023-02-15T18:22:45.870Z,28.87
2023-02-15T18:25:13.727Z,25.13
2023-02-15T18:27:40.469Z,28.90
2023-02-15T18:30:13.754Z,41.60
2023-02-15T18:32:40.925Z,30.57
2023-02-15T18:35:13.576Z,36.60
2023-02-15T18:37:40.306Z,28.80
2023-02-15T18:40:15.453Z,32.73
2023-02-15T18:42:42.163Z,35.00
2023-02-15T18:45:15.386Z,36.10
2023-02-15T18:47:42.057Z,37.23
2023-02-15T18:50:09.321Z,33.23
2023-02-15T18:52:38.045Z,37.60
2023-02-15T18:55:16.118Z,32.13
2023-02-15T18:57:42.939Z,35.30
2023-02-15T19:00:15.600Z,26.20
2023-02-15T19:02:42.294Z,38.67
2023-02-15T19:05:09.102Z,40.20
2023-02-15T19:07:36.926Z,43.70
2023-02-15T19:10:07.786Z,39.50
2023-02-15T19:12:34.473Z,41.60
2023-02-15T19:15:01.262Z,33.30
2023-02-15T19:17:29.402Z,31.63
2023-02-15T19:19:56.062Z,34.23
2023-02-15T19:22:25.860Z,38.43
2023-02-15T19:24:53.692Z,35.77
2023-02-15T19:27:24.937Z,49.50
2023-02-15T19:29:52.266Z,31.93
2023-02-15T19:32:19.025Z,33.10
2023-02-15T19:34:47.036Z,35.00
2023-02-15T19:37:23.272Z,22.90
2023-02-15T19:39:50.043Z,32.83
2023-02-15T19:42:19.573Z,35.13
2023-02-15T19:44:46.181Z,34.90
2023-02-15T19:47:13.951Z,42.20
2023-02-15T19:49:40.694Z,34.87
2023-02-15T19:52:16.382Z,37.20
2023-02-15T19:54:45.262Z,25.50
2023-02-15T19:57:13.375Z,29.60
2023-02-15T19:59:40.851Z,34.50
2023-02-15T20:02:10.755Z,29.07
2023-02-15T20:04:37.419Z,27.30
2023-02-15T20:07:09.470Z,35.43
2023-02-15T20:09:37.432Z,40.30
2023-02-15T20:12:04.455Z,42.90
2023-02-15T20:14:31.078Z,54.47
2023-02-15T20:16:57.706Z,37.67
2023-02-15T20:19:24.467Z,36.47
2023-02-15T20:21:51.207Z,40.43
2023-02-15T20:24:20.682Z,38.13
2023-02-15T20:26:48.887Z,38.80
2023-02-15T20:29:17.035Z,43.27
2023-02-15T20:31:44.165Z,34.23
2023-02-15T20:34:11.341Z,40.30
2023-02-15T20:36:38.702Z,39.27
2023-02-15T20:39:13.788Z,49.77
2023-02-15T20:41:40.441Z,40.07
2023-02-15T20:44:18.000Z,38.17
2023-02-15T20:46:44.878Z,45.53
2023-02-15T20:49:11.620Z,46.50
2023-02-15T20:51:38.739Z,31.13
2023-02-15T20:54:11.447Z,48.50
2023-02-15T20:56:38.108Z,44.30
2023-02-15T20:59:16.979Z,80.13
2023-02-15T21:01:45.142Z,42.27
2023-02-15T21:04:17.576Z,40.00
2023-02-15T21:06:44.311Z,48.07
2023-02-15T21:09:13.668Z,44.70
2023-02-15T21:11:40.556Z,34.63
2023-02-15T21:14:09.756Z,41.60
2023-02-15T21:16:36.565Z,47.67
2023-02-15T21:19:12.544Z,41.70
2023-02-15T21:21:39.498Z,34.40
2023-02-15T21:24:06.863Z,42.87
2023-02-15T21:26:33.932Z,37.50
2023-02-15T21:29:00.566Z,41.60
2023-02-15T21:31:27.389Z,34.70
2023-02-15T21:33:54.129Z,41.90
2023-02-15T21:36:24.837Z,50.60
2023-02-15T21:38:51.869Z,54.60
2023-02-15T21:41:20.889Z,52.90
2023-02-15T21:43:47.562Z,42.67
2023-02-15T21:46:16.254Z,41.77
2023-02-15T21:48:42.922Z,40.20
2023-02-15T21:51:09.569Z,43.10
2023-02-15T21:53:40.951Z,40.53
2023-02-15T21:56:11.902Z,52.53
2023-02-15T21:58:38.606Z,50.87
2023-02-15T22:01:06.614Z,41.47
2023-02-15T22:03:35.670Z,33.50
2023-02-15T22:06:02.534Z,49.03
2023-02-15T22:08:29.421Z,32.23
2023-02-15T22:10:57.774Z,45.83
2023-02-15T22:13:27.795Z,42.37
2023-02-15T22:15:55.117Z,32.77
2023-02-15T22:18:23.807Z,35.60
2023-02-15T22:20:51.459Z,55.73
2023-02-15T22:23:18.288Z,42.77
2023-02-15T22:25:50.162Z,53.37
2023-02-15T22:28:18.298Z,42.73
2023-02-15T22:30:45.194Z,37.13
2023-02-15T22:33:22.857Z,39.10
2023-02-15T22:35:49.830Z,39.00
2023-02-15T22:38:16.581Z,39.73
2023-02-15T22:40:43.915Z,35.87
2023-02-15T22:43:27.777Z,54.60
2023-02-15T22:46:00.405Z,43.17
2023-02-15T22:48:28.032Z,43.80
2023-02-15T22:50:54.784Z,46.57
2023-02-15T22:53:21.471Z,46.60
2023-02-15T22:55:48.460Z,51.07
2023-02-15T22:58:20.772Z,48.33
2023-02-15T23:00:48.991Z,39.47
2023-02-15T23:03:18.802Z,49.83
2023-02-15T23:05:46.221Z,31.43
2023-02-15T23:08:13.473Z,37.50
2023-02-15T23:10:41.355Z,42.17
2023-02-15T23:13:16.956Z,49.17
2023-02-15T23:15:45.915Z,44.30
2023-02-15T23:18:27.962Z,36.40
2023-02-15T23:20:56.324Z,46.87
2023-02-15T23:23:27.991Z,57.47
2023-02-15T23:25:55.135Z,53.20
2023-02-15T23:28:26.153Z,40.63
2023-02-15T23:30:53.982Z,30.27
2023-02-15T23:33:24.601Z,42.20
2023-02-15T23:35:51.501Z,40.33
2023-02-15T23:38:24.238Z,33.20
2023-02-15T23:40:55.536Z,40.93
2023-02-15T23:43:23.220Z,41.33
2023-02-15T23:45:50.045Z,42.97
2023-02-15T23:48:24.273Z,57.17
2023-02-15T23:50:50.913Z,45.03
2023-02-15T23:53:17.654Z,46.47
2023-02-15T23:55:44.541Z,49.83
2023-02-15T23:58:16.364Z,43.83
